createdAt,value
2022-10-07T00:01:22.978Z,9.63
2022-10-07T00:03:52.839Z,9.67
2022-10-07T00:06:22.843Z,7.60
2022-10-07T00:08:52.966Z,8.53
2022-10-07T00:11:24.397Z,10.00
2022-10-07T00:13:54.965Z,9.83
2022-10-07T00:16:25.664Z,13.97
2022-10-07T00:18:57.848Z,7.20
2022-10-07T00:21:27.701Z,6.83
2022-10-07T00:23:56.241Z,6.63
2022-10-07T00:26:26.575Z,11.83
2022-10-07T00:28:56.009Z,9.50
2022-10-07T00:31:26.270Z,12.93
2022-10-07T00:33:56.438Z,5.37
2022-10-07T00:36:26.808Z,11.07
2022-10-07T00:38:56.702Z,9.23
2022-10-07T00:41:27.467Z,3.60
2022-10-07T00:43:56.368Z,9.43
2022-10-07T00:46:31.405Z,2.90
2022-10-07T00:49:04.668Z,11.77
2022-10-07T00:51:35.022Z,6.00
2022-10-07T00:54:04.792Z,7.80
2022-10-07T00:56:35.008Z,14.00
2022-10-07T00:59:03.432Z,14.20
2022-10-07T01:01:32.320Z,4.83
2022-10-07T01:04:02.370Z,6.67
2022-10-07T01:06:30.614Z,3.67
2022-10-07T01:08:58.913Z,7.90
2022-10-07T01:11:40.387Z,2.70
2022-10-07T01:14:13.437Z,10.03
2022-10-07T01:16:50.738Z,7.97
2022-10-07T01:19:46.363Z,5.87
2022-10-07T01:22:23.042Z,9.53
2022-10-07T01:25:04.117Z,7.47
2022-10-07T01:27:35.599Z,4.70
2022-10-07T01:30:06.314Z,4.40
2022-10-07T01:32:38.094Z,3.33
2022-10-07T01:35:11.128Z,7.97
2022-10-07T01:37:47.411Z,20.23
2022-10-07T01:40:20.729Z,5.73
2022-10-07T01:42:51.961Z,10.30
2022-10-07T01:45:21.994Z,5.97
2022-10-07T01:47:50.679Z,3.83
2022-10-07T01:50:24.605Z,4.63
2022-10-07T01:53:12.555Z,2.30
2022-10-07T01:55:50.879Z,8.33
2022-10-07T01:58:35.469Z,4.23
2022-10-07T02:01:15.342Z,4.33
2022-10-07T02:04:01.516Z,4.17
2022-10-07T02:06:40.115Z,3.40
2022-10-07T02:09:19.623Z,2.30
2022-10-07T02:11:53.611Z,7.10
2022-10-07T02:14:26.622Z,6.50
2022-10-07T02:16:59.374Z,3.37
2022-10-07T02:19:30.137Z,3.53
2022-10-07T02:21:59.550Z,3.73
2022-10-07T02:24:31.886Z,4.87
2022-10-07T02:27:02.905Z,8.63
2022-10-07T02:29:36.988Z,6.37
2022-10-07T02:32:08.280Z,6.63
2022-10-07T02:34:38.435Z,3.27
2022-10-07T02:37:12.020Z,6.83
2022-10-07T02:39:40.229Z,4.17
2022-10-07T02:42:17.674Z,5.83
2022-10-07T02:44:51.267Z,4.37
2022-10-07T02:47:26.209Z,7.60
2022-10-07T02:49:57.185Z,8.23
2022-10-07T02:52:31.352Z,5.00
2022-10-07T02:55:03.828Z,3.67
2022-10-07T02:57:34.739Z,4.30
2022-10-07T03:00:11.084Z,9.47
2022-10-07T03:02:54.066Z,5.17
2022-10-07T03:05:26.951Z,4.83
2022-10-07T03:08:02.564Z,9.03
2022-10-07T03:10:33.087Z,8.73
2022-10-07T03:13:05.034Z,8.97
2022-10-07T03:15:42.158Z,4.73
2022-10-07T03:18:26.491Z,2.10
2022-10-07T03:21:01.087Z,5.87
2022-10-07T03:23:30.547Z,7.93
2022-10-07T03:26:00.667Z,9.33
2022-10-07T03:28:35.369Z,11.10
2022-10-07T03:31:10.216Z,5.57
2022-10-07T03:33:43.237Z,7.33
2022-10-07T03:36:11.589Z,4.73
2022-10-07T03:38:42.676Z,14.83
2022-10-07T03:41:12.457Z,6.20
2022-10-07T03:43:40.907Z,5.90
2022-10-07T03:46:12.256Z,8.83
2022-10-07T03:48:42.007Z,4.93
2022-10-07T03:51:10.582Z,4.90
2022-10-07T03:53:40.723Z,5.80
2022-10-07T03:56:09.497Z,4.50
2022-10-07T03:58:39.428Z,12.90
2022-10-07T04:01:13.904Z,4.67
2022-10-07T04:03:55.866Z,5.93
2022-10-07T04:06:24.976Z,6.17
2022-10-07T04:08:54.920Z,2.70
2022-10-07T04:11:24.311Z,5.43
2022-10-07T04:13:55.653Z,2.53
2022-10-07T04:16:27.935Z,6.40
2022-10-07T04:18:57.863Z,5.80
2022-10-07T04:21:28.302Z,8.23
2022-10-07T04:23:56.450Z,3.57
2022-10-07T04:26:24.700Z,5.97
2022-10-07T04:28:52.932Z,7.90
2022-10-07T04:31:23.907Z,11.63
2022-10-07T04:34:01.834Z,12.27
2022-10-07T04:36:34.910Z,3.63
2022-10-07T04:39:09.156Z,3.63
2022-10-07T04:41:42.934Z,7.33
2022-10-07T04:44:15.904Z,3.40
2022-10-07T04:46:56.818Z,6.73
2022-10-07T04:49:28.639Z,6.77
2022-10-07T04:51:58.944Z,5.63
2022-10-07T04:54:31.957Z,9.53
2022-10-07T04:57:00.493Z,3.83
2022-10-07T04:59:30.200Z,5.43
2022-10-07T05:01:59.399Z,6.93
2022-10-07T05:04:30.561Z,8.43
2022-10-07T05:06:59.648Z,8.00
2022-10-07T05:09:28.016Z,6.73
2022-10-07T05:11:57.961Z,13.80
2022-10-07T05:14:26.125Z,6.63
2022-10-07T05:16:56.775Z,6.43
2022-10-07T05:19:30.565Z,7.87
2022-10-07T05:21:59.292Z,9.60
2022-10-07T05:24:27.947Z,8.73
2022-10-07T05:26:56.735Z,10.80
2022-10-07T05:29:25.110Z,6.83
2022-10-07T05:31:55.217Z,8.87
2022-10-07T05:34:26.644Z,10.53
2022-10-07T05:36:59.175Z,13.20
2022-10-07T05:39:27.890Z,7.50
2022-10-07T05:42:01.784Z,9.63
2022-10-07T05:44:39.229Z,12.90
2022-10-07T05:47:08.032Z,8.77
2022-10-07T05:49:36.643Z,10.30
2022-10-07T05:52:07.755Z,13.07
2022-10-07T05:54:36.585Z,7.30
2022-10-07T05:57:05.457Z,11.30
2022-10-07T05:59:35.469Z,4.53
2022-10-07T06:02:04.802Z,7.10
2022-10-07T06:04:33.967Z,8.73
2022-10-07T06:07:04.076Z,7.27
2022-10-07T06:09:56.815Z,8.33
2022-10-07T06:12:41.717Z,8.63
2022-10-07T06:15:14.032Z,6.60
2022-10-07T06:17:46.354Z,8.33
2022-10-07T06:20:18.965Z,5.40
2022-10-07T06:22:49.475Z,14.27
2022-10-07T06:25:21.719Z,4.63
2022-10-07T06:27:54.111Z,4.10
2022-10-07T06:30:23.283Z,9.60
2022-10-07T06:32:51.502Z,7.93
2022-10-07T06:35:20.005Z,8.43
2022-10-07T06:37:50.033Z,14.63
2022-10-07T06:40:18.721Z,10.63
2022-10-07T06:42:48.332Z,5.10
2022-10-07T06:45:45.695Z,9.23
2022-10-07T06:48:14.945Z,14.87
2022-10-07T06:50:51.844Z,8.00
2022-10-07T06:53:20.994Z,22.47
2022-10-07T06:55:51.583Z,9.57
2022-10-07T06:58:23.508Z,4.43
2022-10-07T07:00:53.108Z,4.30
2022-10-07T07:03:23.952Z,7.83
2022-10-07T07:05:54.560Z,12.10
2022-10-07T07:08:27.853Z,5.00
2022-10-07T07:10:56.738Z,6.50
2022-10-07T07:13:26.989Z,3.03
2022-10-07T07:15:56.660Z,8.60
2022-10-07T07:18:26.174Z,7.70
2022-10-07T07:20:54.659Z,6.50
2022-10-07T07:23:23.817Z,7.13
2022-10-07T07:25:52.153Z,9.97
2022-10-07T07:28:20.404Z,8.97
2022-10-07T07:30:50.525Z,5.60
2022-10-07T07:33:19.032Z,4.37
2022-10-07T07:35:47.275Z,13.93
2022-10-07T07:38:15.551Z,8.03
2022-10-07T07:40:44.749Z,6.90
2022-10-07T07:43:15.974Z,5.73
2022-10-07T07:45:44.559Z,7.73
2022-10-07T07:48:15.259Z,7.30
2022-10-07T07:50:43.988Z,15.17
2022-10-07T07:53:12.210Z,10.80
2022-10-07T07:55:40.326Z,13.97
2022-10-07T07:58:11.657Z,8.60
2022-10-07T08:00:40.919Z,16.83
2022-10-07T08:03:09.391Z,4.30
2022-10-07T08:05:39.297Z,5.33
2022-10-07T08:08:07.649Z,13.80
2022-10-07T08:10:37.110Z,5.70
2022-10-07T08:13:05.456Z,3.43
2022-10-07T08:15:34.826Z,4.17
2022-10-07T08:18:05.701Z,4.47
2022-10-07T08:20:33.997Z,5.80
2022-10-07T08:23:04.650Z,6.47
2022-10-07T08:25:33.173Z,4.20
2022-10-07T08:28:04.160Z,7.10
2022-10-07T08:30:33.704Z,12.23
2022-10-07T08:33:01.927Z,7.90
2022-10-07T08:35:30.062Z,5.17
2022-10-07T08:37:58.206Z,15.73
2022-10-07T08:40:27.717Z,12.07
2022-10-07T08:42:55.968Z,8.10
2022-10-07T08:45:31.600Z,9.60
2022-10-07T08:48:03.603Z,8.03
2022-10-07T08:50:41.614Z,7.80
2022-10-07T08:53:16.803Z,10.67
2022-10-07T08:55:50.773Z,7.70
2022-10-07T08:58:35.985Z,8.60
2022-10-07T09:01:15.583Z,5.67
2022-10-07T09:03:52.222Z,6.50
2022-10-07T09:06:27.913Z,9.60
2022-10-07T09:09:03.777Z,18.30
2022-10-07T09:11:35.939Z,6.20
2022-10-07T09:14:14.961Z,9.97
2022-10-07T09:16:47.333Z,10.00
2022-10-07T09:19:21.784Z,16.23
2022-10-07T09:21:51.534Z,9.03
2022-10-07T09:24:23.200Z,9.90
2022-10-07T09:26:55.369Z,9.17
2022-10-07T09:29:25.229Z,13.03
2022-10-07T09:31:54.448Z,10.37
2022-10-07T09:34:25.296Z,8.53
2022-10-07T09:37:19.132Z,17.40
2022-10-07T09:39:49.696Z,11.13
2022-10-07T09:42:34.923Z,10.63
2022-10-07T09:45:20.551Z,14.47
2022-10-07T09:47:53.613Z,7.47
2022-10-07T09:50:34.317Z,9.03
2022-10-07T09:53:03.457Z,9.10
2022-10-07T09:55:37.675Z,12.37
2022-10-07T09:58:17.556Z,8.43
2022-10-07T10:00:48.052Z,6.27
2022-10-07T10:03:16.769Z,6.10
2022-10-07T10:05:55.142Z,10.37
2022-10-07T10:08:27.661Z,6.53
2022-10-07T10:10:57.681Z,10.93
2022-10-07T10:13:32.983Z,8.60
2022-10-07T10:16:02.183Z,7.83
2022-10-07T10:18:37.897Z,4.47
2022-10-07T10:21:20.814Z,6.90
2022-10-07T10:23:52.520Z,4.80
2022-10-07T10:26:50.734Z,7.03
2022-10-07T10:29:32.375Z,5.93
2022-10-07T10:32:24.786Z,8.60
2022-10-07T10:34:59.927Z,7.63
2022-10-07T10:37:43.289Z,9.17
2022-10-07T10:40:26.691Z,8.83
2022-10-07T10:43:03.651Z,7.83
2022-10-07T10:45:42.191Z,5.80
2022-10-07T10:48:30.071Z,5.30
2022-10-07T10:51:07.510Z,6.20
2022-10-07T10:53:44.115Z,6.17
2022-10-07T10:56:27.052Z,11.83
2022-10-07T10:59:09.433Z,9.00
2022-10-07T11:01:41.711Z,7.77
2022-10-07T11:04:24.334Z,6.53
2022-10-07T11:06:56.993Z,8.50
2022-10-07T11:09:34.357Z,9.03
2022-10-07T11:12:05.777Z,7.37
2022-10-07T11:14:39.227Z,10.70
2022-10-07T11:17:11.437Z,12.43
2022-10-07T11:19:44.295Z,9.63
2022-10-07T11:22:17.397Z,8.47
2022-10-07T11:24:50.762Z,5.13
2022-10-07T11:27:24.860Z,12.17
2022-10-07T11:29:59.679Z,4.57
2022-10-07T11:32:50.594Z,8.47
2022-10-07T11:35:26.783Z,8.13
2022-10-07T11:38:01.907Z,7.63
2022-10-07T11:40:33.282Z,9.23
2022-10-07T11:43:09.057Z,8.00
2022-10-07T11:45:43.020Z,10.67
2022-10-07T11:48:21.230Z,5.70
2022-10-07T11:50:55.144Z,8.47
2022-10-07T11:53:27.172Z,8.53
2022-10-07T11:56:00.440Z,5.53
2022-10-07T11:58:32.709Z,9.87
2022-10-07T12:01:39.743Z,6.30
2022-10-07T12:04:25.517Z,9.43
2022-10-07T12:07:31.232Z,5.70
2022-10-07T12:10:23.284Z,5.60
2022-10-07T12:12:54.747Z,11.77
2022-10-07T12:15:29.261Z,4.97
2022-10-07T12:18:18.551Z,6.37
2022-10-07T12:21:08.606Z,6.23
2022-10-07T12:23:42.281Z,5.40
2022-10-07T12:26:47.387Z,7.10
2022-10-07T12:29:25.223Z,3.23
2022-10-07T12:31:53.625Z,6.53
2022-10-07T12:34:34.802Z,10.00
2022-10-07T12:37:45.376Z,4.40
2022-10-07T12:40:23.601Z,3.80
2022-10-07T12:42:57.496Z,5.93
2022-10-07T12:45:28.526Z,4.13
2022-10-07T12:47:59.091Z,7.67
2022-10-07T12:50:29.321Z,8.77
2022-10-07T12:53:01.737Z,5.47
2022-10-07T12:55:33.898Z,6.27
2022-10-07T12:58:18.864Z,7.70
2022-10-07T13:01:02.580Z,7.03
2022-10-07T13:03:59.076Z,4.60
2022-10-07T13:07:03.033Z,5.63
2022-10-07T13:10:09.530Z,8.30
2022-10-07T13:12:46.329Z,8.33
2022-10-07T13:15:27.874Z,7.60
2022-10-07T13:18:07.284Z,4.80
2022-10-07T13:20:47.543Z,7.30
2022-10-07T13:23:21.974Z,9.77
2022-10-07T13:25:55.967Z,6.20
2022-10-07T13:28:26.769Z,7.90
2022-10-07T13:30:55.302Z,4.73
2022-10-07T13:33:27.868Z,5.87
2022-10-07T13:36:14.535Z,7.20
2022-10-07T13:38:42.904Z,4.07
2022-10-07T13:41:21.023Z,6.30
2022-10-07T13:43:52.533Z,3.97
2022-10-07T13:46:22.161Z,9.97
2022-10-07T13:48:50.660Z,6.43
2022-10-07T13:51:31.742Z,7.37
2022-10-07T13:54:01.763Z,7.37
2022-10-07T13:56:36.124Z,6.07
2022-10-07T13:59:06.790Z,4.17
2022-10-07T14:01:39.922Z,4.40
2022-10-07T14:04:22.573Z,9.50
2022-10-07T14:06:57.740Z,7.87
2022-10-07T14:09:36.269Z,12.97
2022-10-07T14:12:08.728Z,4.73
2022-10-07T14:14:39.931Z,8.10
2022-10-07T14:17:20.039Z,4.30
2022-10-07T14:19:53.537Z,5.40
2022-10-07T14:22:30.174Z,11.73
2022-10-07T14:25:02.242Z,7.40
2022-10-07T14:27:55.061Z,6.90
2022-10-07T14:30:56.089Z,8.33
2022-10-07T14:34:03.521Z,7.77
2022-10-07T14:36:36.103Z,7.30
2022-10-07T14:39:22.809Z,3.03
2022-10-07T14:41:51.241Z,8.77
2022-10-07T14:44:20.714Z,7.20
2022-10-07T14:46:48.869Z,4.57
2022-10-07T14:49:17.672Z,3.10
2022-10-07T14:51:47.309Z,4.47
2022-10-07T14:54:16.115Z,6.67
2022-10-07T14:56:44.359Z,4.00
2022-10-07T14:59:15.515Z,6.03
2022-10-07T15:01:48.024Z,12.57
2022-10-07T15:04:16.279Z,3.83
2022-10-07T15:06:50.058Z,8.17
2022-10-07T15:09:19.573Z,7.43
2022-10-07T15:11:48.389Z,4.80
2022-10-07T15:14:16.678Z,7.43
2022-10-07T15:16:44.909Z,9.27
2022-10-07T15:19:15.213Z,7.43
2022-10-07T15:21:43.364Z,5.77
2022-10-07T15:24:13.097Z,4.80
2022-10-07T15:26:41.397Z,3.77
2022-10-07T15:29:09.997Z,5.83
2022-10-07T15:31:38.157Z,8.63
2022-10-07T15:34:06.374Z,6.80
2022-10-07T15:36:35.881Z,6.30
2022-10-07T15:39:04.756Z,7.80
2022-10-07T15:41:35.023Z,7.80
2022-10-07T15:44:05.500Z,10.53
2022-10-07T15:46:34.153Z,10.70
2022-10-07T15:49:03.542Z,6.57
2022-10-07T15:51:32.326Z,9.83
2022-10-07T15:54:01.824Z,7.60
2022-10-07T15:56:30.005Z,8.60
2022-10-07T15:59:00.506Z,6.27
2022-10-07T16:01:31.950Z,6.70
2022-10-07T16:04:01.605Z,6.90
2022-10-07T16:06:32.530Z,6.07
2022-10-07T16:09:03.141Z,5.00
2022-10-07T16:11:33.303Z,6.27
2022-10-07T16:14:02.955Z,10.77
2022-10-07T16:16:32.411Z,9.33
2022-10-07T16:19:01.629Z,7.87
2022-10-07T16:21:32.040Z,5.97
2022-10-07T16:24:04.554Z,4.27
2022-10-07T16:26:35.643Z,10.30
2022-10-07T16:29:22.874Z,4.23
2022-10-07T16:31:57.142Z,8.03
2022-10-07T16:34:27.741Z,7.83
2022-10-07T16:36:57.017Z,7.63
2022-10-07T16:39:26.550Z,14.60
2022-10-07T16:41:56.425Z,9.70
2022-10-07T16:44:24.845Z,10.30
2022-10-07T16:46:56.822Z,4.30
2022-10-07T16:49:27.694Z,12.80
2022-10-07T16:51:56.421Z,11.37
2022-10-07T16:54:26.014Z,6.73
2022-10-07T16:56:54.383Z,14.52
2022-10-07T16:59:24.757Z,8.40
2022-10-07T17:01:54.921Z,11.93
2022-10-07T17:04:24.556Z,8.80
2022-10-07T17:06:53.166Z,9.40
2022-10-07T17:09:24.397Z,9.10
2022-10-07T17:11:53.890Z,10.90
2022-10-07T17:14:23.859Z,30.57
2022-10-07T17:16:56.495Z,10.10
2022-10-07T17:19:26.667Z,9.67
2022-10-07T17:21:56.499Z,9.50
2022-10-07T17:24:25.031Z,8.10
2022-10-07T17:26:56.201Z,9.27
2022-10-07T17:29:26.294Z,9.23
2022-10-07T17:31:55.025Z,14.27
2022-10-07T17:34:23.718Z,15.00
2022-10-07T17:36:52.249Z,13.43
2022-10-07T17:39:20.799Z,9.50
2022-10-07T17:41:49.145Z,12.20
2022-10-07T17:44:18.976Z,11.63
2022-10-07T17:46:48.941Z,18.37
2022-10-07T17:49:17.517Z,8.93
2022-10-07T17:51:45.708Z,13.80
2022-10-07T17:54:14.942Z,14.57
2022-10-07T17:56:44.408Z,10.60
2022-10-07T17:59:12.625Z,9.60
2022-10-07T18:01:42.411Z,13.30
2022-10-07T18:04:12.903Z,14.43
2022-10-07T18:06:43.290Z,16.27
2022-10-07T18:09:15.003Z,13.43
2022-10-07T18:12:00.792Z,9.80
2022-10-07T18:14:49.795Z,21.70
2022-10-07T18:17:22.505Z,16.23
2022-10-07T18:19:50.977Z,22.90
2022-10-07T18:22:19.319Z,10.87
2022-10-07T18:24:47.471Z,15.50
2022-10-07T18:27:15.677Z,21.10
2022-10-07T18:29:43.899Z,10.30
2022-10-07T18:32:12.072Z,10.10
2022-10-07T18:34:41.577Z,15.33
2022-10-07T18:37:09.781Z,17.80
2022-10-07T18:39:38.229Z,16.13
2022-10-07T18:42:06.789Z,22.60
2022-10-07T18:44:34.921Z,15.73
2022-10-07T18:47:03.063Z,16.83
2022-10-07T18:49:33.745Z,15.53
2022-10-07T18:52:05.164Z,12.27
2022-10-07T18:54:33.421Z,11.10
2022-10-07T18:57:01.717Z,19.30
2022-10-07T18:59:29.961Z,13.80
2022-10-07T19:01:58.511Z,13.13
2022-10-07T19:04:27.139Z,14.60
2022-10-07T19:06:58.778Z,13.20
2022-10-07T19:09:28.825Z,18.20
2022-10-07T19:11:56.969Z,11.50
2022-10-07T19:14:26.062Z,16.40
2022-10-07T19:16:54.441Z,14.60
2022-10-07T19:19:24.256Z,16.83
2022-10-07T19:21:54.065Z,20.73
2022-10-07T19:24:44.531Z,18.73
2022-10-07T19:27:14.257Z,30.97
2022-10-07T19:29:42.370Z,23.10
2022-10-07T19:32:10.538Z,19.03
2022-10-07T19:34:38.953Z,26.03
2022-10-07T19:37:07.130Z,16.03
2022-10-07T19:39:35.484Z,26.60
2022-10-07T19:42:06.724Z,26.13
2022-10-07T19:44:38.471Z,15.60
2022-10-07T19:47:06.780Z,22.40
2022-10-07T19:49:35.005Z,19.30
2022-10-07T19:52:03.184Z,18.07
2022-10-07T19:54:35.804Z,16.83
2022-10-07T19:57:04.426Z,15.30
2022-10-07T19:59:32.555Z,23.40
2022-10-07T20:02:06.149Z,30.53
2022-10-07T20:04:35.516Z,29.00
2022-10-07T20:07:03.703Z,32.73
2022-10-07T20:09:31.858Z,31.87
2022-10-07T20:12:00.514Z,29.20
2022-10-07T20:14:29.692Z,25.93
2022-10-07T20:16:58.076Z,29.07
2022-10-07T20:19:28.046Z,23.53
2022-10-07T20:21:56.513Z,23.30
2022-10-07T20:24:24.755Z,21.80
2022-10-07T20:26:52.925Z,16.13
2022-10-07T20:29:25.246Z,21.53
2022-10-07T20:31:53.898Z,21.70
2022-10-07T20:34:22.124Z,16.73
2022-10-07T20:36:51.745Z,17.90
2022-10-07T20:39:38.633Z,15.93
2022-10-07T20:42:25.409Z,15.10
2022-10-07T20:44:54.432Z,15.00
2022-10-07T20:47:24.140Z,18.40
2022-10-07T20:49:52.300Z,16.50
2022-10-07T20:52:23.441Z,14.63
2022-10-07T20:54:52.820Z,23.83
2022-10-07T20:57:23.987Z,17.80
2022-10-07T20:59:52.581Z,18.10
2022-10-07T21:02:23.329Z,18.03
2022-10-07T21:04:51.535Z,13.57
2022-10-07T21:07:22.128Z,20.43
2022-10-07T21:09:50.284Z,24.37
2022-10-07T21:12:19.356Z,20.03
2022-10-07T21:14:48.590Z,22.00
2022-10-07T21:17:17.373Z,19.53
2022-10-07T21:19:45.758Z,17.20
2022-10-07T21:22:13.906Z,14.20
2022-10-07T21:24:43.363Z,15.13
2022-10-07T21:27:11.614Z,14.53
2022-10-07T21:29:41.173Z,23.87
2022-10-07T21:32:10.539Z,15.87
2022-10-07T21:34:38.746Z,17.63
2022-10-07T21:37:06.848Z,27.70
2022-10-07T21:39:35.085Z,22.23
2022-10-07T21:42:04.881Z,23.27
2022-10-07T21:44:34.778Z,13.53
2022-10-07T21:47:05.014Z,14.80
2022-10-07T21:49:33.236Z,29.33
2022-10-07T21:52:01.361Z,15.80
2022-10-07T21:54:30.288Z,20.63
2022-10-07T21:56:58.486Z,18.70
2022-10-07T21:59:27.976Z,14.97
2022-10-07T22:01:56.167Z,16.50
2022-10-07T22:04:25.062Z,19.60
2022-10-07T22:07:10.759Z,22.00
2022-10-07T22:09:38.909Z,21.73
2022-10-07T22:12:07.216Z,19.37
2022-10-07T22:14:36.807Z,21.37
2022-10-07T22:17:04.940Z,16.53
2022-10-07T22:19:34.056Z,10.73
2022-10-07T22:22:02.167Z,18.90
2022-10-07T22:24:30.919Z,18.53
2022-10-07T22:26:59.483Z,16.50
2022-10-07T22:29:28.330Z,21.37
2022-10-07T22:31:57.909Z,22.73
2022-10-07T22:34:43.870Z,18.67
2022-10-07T22:37:12.064Z,12.50
2022-10-07T22:39:41.118Z,12.73
2022-10-07T22:42:09.427Z,15.83
2022-10-07T22:44:37.553Z,11.20
2022-10-07T22:47:07.085Z,15.07
2022-10-07T22:49:35.189Z,15.97
2022-10-07T22:52:03.358Z,18.43
2022-10-07T22:54:31.431Z,17.27
2022-10-07T22:56:59.855Z,13.07
2022-10-07T22:59:27.989Z,13.50
2022-10-07T23:01:56.126Z,14.37
2022-10-07T23:04:26.138Z,12.07
2022-10-07T23:06:54.293Z,13.53
2022-10-07T23:09:22.435Z,17.80
2022-10-07T23:11:50.560Z,17.37
2022-10-07T23:14:18.957Z,13.80
2022-10-07T23:16:47.092Z,11.20
2022-10-07T23:19:15.221Z,10.47
2022-10-07T23:21:44.795Z,12.23
2022-10-07T23:24:13.884Z,10.57
2022-10-07T23:26:45.947Z,13.80
2022-10-07T23:29:14.667Z,19.67
2022-10-07T23:31:42.787Z,14.90
2022-10-07T23:34:11.869Z,15.23
2022-10-07T23:36:40.832Z,13.03
2022-10-07T23:39:10.332Z,20.80
2022-10-07T23:41:38.511Z,13.43
2022-10-07T23:44:07.116Z,12.50
2022-10-07T23:46:36.366Z,9.90
2022-10-07T23:49:05.423Z,11.57
2022-10-07T23:51:34.409Z,10.30
2022-10-07T23:54:05.063Z,11.60
2022-10-07T23:56:34.851Z,10.60
2022-10-07T23:59:03.906Z,14.43
